Time;durP1;ratioP1;P1;durP2;ratioP2;P2;SDS_P1;SDS_P2;PMS_P1;PMS_P2;Temp;Humidity;BMP_temperature;BMP_pressure;BME280_temperature;BME280_humidity;BME280_pressure;Samples;Min_cycle;Max_cycle;Signal;HPM_P1;HPM_P2
2020/12/05 00:02:15;;;;;;;7.57;6.37;;;6.30;1.00;;;;;;5096558;28;20170;-70
2020/12/05 00:04:40;;;;;;;6.80;5.97;;;6.10;1.00;;;;;;5096241;28;20413;-70
2020/12/05 00:07:06;;;;;;;8.00;5.73;;;6.20;1.00;;;;;;5096705;28;20638;-70
2020/12/05 00:09:31;;;;;;;7.07;6.37;;;6.30;1.00;;;;;;5096365;28;20647;-70
2020/12/05 00:12:00;;;;;;;8.40;6.93;;;6.30;1.00;;;;;;5095058;28;20644;-70
2020/12/05 00:14:26;;;;;;;6.63;5.95;;;6.20;1.00;;;;;;5096098;28;20191;-70
2020/12/05 00:16:51;;;;;;;6.90;5.17;;;6.20;1.00;;;;;;5096165;28;20233;-69
2020/12/05 00:19:19;;;;;;;9.53;6.47;;;6.10;1.00;;;;;;5097293;28;20635;-70
2020/12/05 00:21:45;;;;;;;6.25;5.55;;;6.10;43.90;;;;;;5096344;28;20582;-70
2020/12/05 00:24:10;;;;;;;8.25;6.05;;;6.30;1.00;;;;;;5094785;28;20645;-70
2020/12/05 00:26:36;;;;;;;7.00;6.30;;;6.10;99.90;;;;;;5096001;28;20221;-70
2020/12/05 00:29:01;;;;;;;7.70;5.67;;;5.90;99.90;;;;;;5095827;28;20658;-70
2020/12/05 00:31:27;;;;;;;6.90;6.00;;;5.90;99.90;;;;;;5095908;28;20240;-70
2020/12/05 00:33:52;;;;;;;7.33;6.00;;;6.00;99.90;;;;;;5096052;28;20191;-70
2020/12/05 00:36:19;;;;;;;6.43;4.80;;;6.00;99.90;;;;;;5095959;28;20202;-70
2020/12/05 00:38:45;;;;;;;7.35;5.38;;;6.00;99.90;;;;;;5095731;28;20215;-69
2020/12/05 00:41:16;;;;;;;8.30;6.03;;;6.00;1.30;;;;;;5096026;28;20691;-70
2020/12/05 00:43:42;;;;;;;11.90;7.00;;;6.00;99.90;;;;;;5094446;28;20548;-70
2020/12/05 00:46:07;;;;;;;7.93;5.87;;;6.00;99.90;;;;;;5095617;28;20187;-69
2020/12/05 00:48:33;;;;;;;10.90;7.33;;;6.10;99.90;;;;;;5095629;28;20177;-68
2020/12/05 00:50:59;;;;;;;11.73;7.80;;;6.10;1.00;;;;;;5095590;28;20173;-68
2020/12/05 00:53:24;;;;;;;8.67;7.13;;;6.00;99.90;;;;;;5095649;28;20217;-70
2020/12/05 00:55:50;;;;;;;9.47;7.07;;;5.90;99.90;;;;;;5095494;28;20532;-70
2020/12/05 00:58:16;;;;;;;7.50;6.67;;;6.00;1.00;;;;;;5095429;28;20164;-69
2020/12/05 01:00:42;;;;;;;7.83;6.30;;;6.20;99.90;;;;;;5095353;28;20517;-69
2020/12/05 01:03:08;;;;;;;11.55;6.45;;;6.10;99.90;;;;;;5095304;28;20741;-70
2020/12/05 01:05:35;;;;;;;11.03;8.00;;;6.10;99.90;;;;;;5093818;28;20215;-69
2020/12/05 01:08:01;;;;;;;9.88;7.68;;;6.20;1.00;;;;;;5095218;28;20517;-70
2020/12/05 01:10:27;;;;;;;11.05;7.53;;;6.30;1.00;;;;;;5095329;28;20183;-70
2020/12/05 01:12:52;;;;;;;14.93;9.27;;;6.30;99.90;;;;;;5097216;28;20167;-70
2020/12/05 01:15:18;;;;;;;13.17;8.60;;;6.20;99.90;;;;;;5096974;28;20571;-70
2020/12/05 01:17:44;;;;;;;11.07;8.38;;;6.00;1.00;;;;;;5095065;28;20168;-69
2020/12/05 01:20:10;;;;;;;10.50;8.37;;;6.00;1.00;;;;;;5096213;28;20514;-70
2020/12/05 01:22:35;;;;;;;9.10;8.20;;;5.90;10.20;;;;;;5095151;28;20167;-70
2020/12/05 01:25:01;;;;;;;12.77;9.20;;;6.00;99.90;;;;;;5094818;28;20592;-70
2020/12/05 01:27:26;;;;;;;11.97;8.87;;;5.90;89.20;;;;;;5093523;28;20640;-70
2020/12/05 01:29:52;;;;;;;12.17;10.13;;;6.00;99.90;;;;;;5094715;28;20178;-69
2020/12/05 01:32:18;;;;;;;10.07;9.07;;;6.10;99.90;;;;;;5094861;28;20262;-70
2020/12/05 01:34:43;;;;;;;14.37;8.40;;;6.00;99.90;;;;;;5094544;28;20191;-70
2020/12/05 01:37:09;;;;;;;13.37;10.00;;;5.90;99.90;;;;;;5094602;28;20415;-70
2020/12/05 01:39:35;;;;;;;13.73;10.27;;;5.90;99.90;;;;;;5094532;28;20167;-70
2020/12/05 01:42:01;;;;;;;13.00;9.77;;;6.10;59.20;;;;;;5094574;28;20578;-69
2020/12/05 01:44:26;;;;;;;13.73;10.83;;;6.30;1.00;;;;;;5094795;28;20254;-69
2020/12/05 01:46:52;;;;;;;13.97;9.40;;;6.10;1.00;;;;;;5094314;28;20191;-69
2020/12/05 01:49:20;;;;;;;17.25;10.82;;;6.10;25.40;;;;;;5093255;28;20571;-69
2020/12/05 01:51:46;;;;;;;14.73;10.75;;;6.10;1.00;;;;;;5094385;28;20164;-69
2020/12/05 01:54:13;;;;;;;13.20;10.48;;;6.10;1.00;;;;;;5094188;28;20219;-70
2020/12/05 01:56:43;;;;;;;14.20;9.40;;;6.00;1.00;;;;;;5094147;28;20179;-70
2020/12/05 01:59:08;;;;;;;13.68;9.38;;;6.10;77.10;;;;;;5094574;28;20547;-71
2020/12/05 02:01:35;;;;;;;12.40;8.30;;;6.00;99.90;;;;;;5094234;28;20160;-69
2020/12/05 02:04:03;;;;;;;16.40;9.70;;;6.00;99.90;;;;;;5094042;28;20175;-69
2020/12/05 02:07:05;;;;;;;18.17;10.65;;;6.00;99.90;;;;;;5093732;28;20214;-71
2020/12/05 02:09:41;;;;;;;13.05;10.60;;;6.10;99.90;;;;;;5091718;28;20253;-70
2020/12/05 02:12:27;;;;;;;15.77;10.85;;;6.10;99.90;;;;;;5094054;28;20268;-70
2020/12/05 02:15:01;;;;;;;14.15;8.63;;;6.00;35.10;;;;;;5093382;28;20183;-70
2020/12/05 02:17:29;;;;;;;16.13;10.32;;;5.90;99.90;;;;;;5094174;28;20217;-70
2020/12/05 02:19:56;;;;;;;17.15;10.70;;;5.90;1.00;;;;;;5093867;28;20167;-70
2020/12/05 02:22:26;;;;;;;18.00;12.27;;;5.90;1.00;;;;;;5093779;28;20159;-70
2020/12/05 02:24:53;;;;;;;18.20;12.35;;;6.20;99.90;;;;;;5094046;28;20540;-70
2020/12/05 02:27:22;;;;;;;17.77;13.13;;;6.40;1.00;;;;;;5093713;28;20544;-70
2020/12/05 02:29:48;;;;;;;14.30;10.77;;;6.30;1.00;;;;;;5093731;28;20235;-70
2020/12/05 02:32:13;;;;;;;17.47;12.23;;;6.30;1.00;;;;;;5093773;28;20252;-69
2020/12/05 02:34:40;;;;;;;19.30;13.23;;;6.30;1.00;;;;;;5093475;28;20187;-70
2020/12/05 02:37:15;;;;;;;18.85;11.38;;;6.50;1.00;;;;;;5093615;28;20570;-69
2020/12/05 02:39:42;;;;;;;19.33;12.55;;;6.50;99.90;;;;;;5093579;28;20212;-69
2020/12/05 02:42:12;;;;;;;16.20;12.00;;;6.30;1.00;;;;;;5110601;28;20266;-70
2020/12/05 02:44:52;;;;;;;15.70;11.88;;;6.00;99.90;;;;;;5093436;28;20626;-70
2020/12/05 02:47:19;;;;;;;15.70;11.73;;;6.00;1.00;;;;;;5093462;28;20166;-69
2020/12/05 02:49:46;;;;;;;17.70;12.70;;;6.10;1.00;;;;;;5092220;28;20521;-70
2020/12/05 02:52:12;;;;;;;17.10;12.10;;;6.10;1.00;;;;;;5093456;28;20644;-69
2020/12/05 02:54:38;;;;;;;19.27;12.93;;;6.00;1.00;;;;;;5093392;28;20335;-70
2020/12/05 02:57:04;;;;;;;18.33;12.63;;;6.00;99.90;;;;;;5093260;28;20590;-70
2020/12/05 02:59:30;;;;;;;14.73;12.05;;;6.10;1.00;;;;;;5093333;28;20155;-70
2020/12/05 03:01:57;;;;;;;14.35;12.27;;;6.00;42.60;;;;;;5093232;28;20276;-70
2020/12/05 03:04:23;;;;;;;16.45;12.02;;;6.20;1.00;;;;;;5093062;28;20216;-69
2020/12/05 03:06:48;;;;;;;18.98;13.05;;;6.20;99.90;;;;;;5093065;28;20587;-70
2020/12/05 03:09:14;;;;;;;21.07;13.40;;;5.90;1.00;;;;;;5093115;28;20175;-69
2020/12/05 03:11:41;;;;;;;20.70;13.80;;;5.80;99.90;;;;;;5093514;28;20178;-69
2020/12/05 03:14:07;;;;;;;21.20;13.88;;;6.00;14.20;;;;;;5092972;28;20683;-70
2020/12/05 03:16:33;;;;;;;17.25;14.02;;;6.00;1.00;;;;;;5108808;28;20203;-69
2020/12/05 03:18:59;;;;;;;25.02;14.88;;;6.00;87.90;;;;;;5093179;28;20210;-70
2020/12/05 03:21:25;;;;;;;20.43;14.70;;;5.80;27.30;;;;;;5093025;28;20265;-70
2020/12/05 03:23:51;;;;;;;19.65;14.00;;;5.60;77.90;;;;;;5092945;28;20178;-70
2020/12/05 03:26:16;;;;;;;21.13;13.80;;;5.70;1.00;;;;;;5094652;28;20191;-70
2020/12/05 03:28:42;;;;;;;19.07;13.57;;;5.60;1.00;;;;;;5112731;28;20181;-70
2020/12/05 03:31:13;;;;;;;25.88;16.55;;;5.90;99.90;;;;;;5097293;28;20182;-70
2020/12/05 03:33:41;;;;;;;19.52;14.13;;;5.90;99.90;;;;;;5097199;28;20651;-70
2020/12/05 03:36:06;;;;;;;28.60;15.18;;;5.80;99.90;;;;;;5097032;28;20183;-70
2020/12/05 03:38:32;;;;;;;20.27;13.87;;;6.00;99.90;;;;;;5097127;28;20217;-70
2020/12/05 03:40:57;;;;;;;24.63;13.73;;;6.10;99.90;;;;;;5096996;28;20164;-69
2020/12/05 03:43:23;;;;;;;20.90;13.80;;;5.80;1.00;;;;;;5097121;28;20160;-69
2020/12/05 03:45:48;;;;;;;23.00;14.07;;;5.80;99.90;;;;;;5096786;28;20241;-69
2020/12/05 03:48:14;;;;;;;20.40;13.70;;;5.80;19.50;;;;;;5096737;28;20505;-70
2020/12/05 03:50:39;;;;;;;21.03;13.70;;;5.70;99.90;;;;;;5097126;28;20247;-71
2020/12/05 03:53:05;;;;;;;20.23;14.30;;;5.70;99.90;;;;;;5096806;28;20231;-70
2020/12/05 03:55:31;;;;;;;21.33;15.10;;;5.70;99.90;;;;;;5096704;28;20203;-70
2020/12/05 03:57:56;;;;;;;17.70;13.07;;;5.70;99.90;;;;;;5096481;28;20643;-70
2020/12/05 04:00:22;;;;;;;21.93;15.33;;;5.60;1.00;;;;;;5097024;28;20512;-70
2020/12/05 04:02:48;;;;;;;19.50;14.52;;;5.60;99.90;;;;;;5096391;28;20217;-70
2020/12/05 04:05:13;;;;;;;18.47;13.73;;;5.70;1.00;;;;;;5096393;28;20686;-70
2020/12/05 04:07:39;;;;;;;27.17;15.10;;;5.60;99.90;;;;;;5112413;28;20524;-70
2020/12/05 04:10:05;;;;;;;22.60;14.43;;;5.60;1.00;;;;;;5096348;28;20164;-71
2020/12/05 04:12:30;;;;;;;18.83;13.03;;;5.80;1.00;;;;;;5096227;28;20225;-70
2020/12/05 04:14:56;;;;;;;18.03;13.50;;;5.70;53.90;;;;;;5096149;28;20276;-71
2020/12/05 04:17:21;;;;;;;18.90;13.33;;;5.60;1.00;;;;;;5112150;28;20521;-70
2020/12/05 04:19:48;;;;;;;17.33;12.70;;;5.60;99.90;;;;;;5096187;28;20203;-71
2020/12/05 04:22:14;;;;;;;16.08;12.73;;;5.80;1.00;;;;;;5096090;28;20194;-70
2020/12/05 04:24:39;;;;;;;18.03;13.60;;;5.70;1.00;;;;;;5095979;28;20648;-70
2020/12/05 04:27:05;;;;;;;18.07;13.80;;;5.60;99.90;;;;;;5096092;28;20437;-70
2020/12/05 04:29:31;;;;;;;20.23;14.87;;;5.50;99.90;;;;;;5096156;28;20175;-70
2020/12/05 04:31:56;;;;;;;20.87;13.00;;;5.60;99.90;;;;;;5096012;28;20170;-70
2020/12/05 04:34:22;;;;;;;20.87;14.60;;;5.80;1.00;;;;;;5111476;28;20196;-70
2020/12/05 04:36:47;;;;;;;22.40;15.40;;;5.90;1.00;;;;;;5111395;28;20651;-70
2020/12/05 04:39:13;;;;;;;19.07;13.90;;;6.10;99.90;;;;;;5096522;28;20490;-70
2020/12/05 04:41:43;;;;;;;24.73;15.47;;;6.10;99.90;;;;;;5095713;28;20167;-70
2020/12/05 04:44:12;;;;;;;25.35;14.02;;;6.00;99.90;;;;;;5095855;28;20183;-71
2020/12/05 04:46:37;;;;;;;21.65;13.73;;;5.90;1.00;;;;;;5095817;28;20198;-71
2020/12/05 04:49:04;;;;;;;26.30;14.63;;;5.80;20.80;;;;;;5095568;28;20640;-71
2020/12/05 04:51:37;;;;;;;22.23;15.02;;;5.80;1.00;;;;;;5095707;28;20206;-70
2020/12/05 04:54:07;;;;;;;23.50;14.63;;;6.00;1.00;;;;;;5095406;28;20194;-69
2020/12/05 04:56:38;;;;;;;24.23;15.00;;;6.20;76.60;;;;;;5095617;28;20256;-70
2020/12/05 04:59:07;;;;;;;20.90;14.15;;;5.80;99.90;;;;;;5111119;28;20162;-69
2020/12/05 05:01:35;;;;;;;19.27;13.73;;;5.70;1.00;;;;;;5095303;28;20527;-69
2020/12/05 05:04:02;;;;;;;26.20;15.77;;;5.70;99.90;;;;;;5095240;28;20164;-69
2020/12/05 05:06:27;;;;;;;21.83;15.38;;;5.80;99.90;;;;;;5118313;22;20309;-69
2020/12/05 05:08:53;;;;;;;22.30;15.00;;;5.90;1.00;;;;;;5095838;28;20210;-69
2020/12/05 05:11:19;;;;;;;23.63;14.57;;;5.80;1.00;;;;;;5095579;28;20191;-69
2020/12/05 05:13:52;;;;;;;19.70;14.23;;;5.90;1.00;;;;;;5094977;28;20191;-69
2020/12/05 05:16:18;;;;;;;20.27;14.77;;;5.80;52.60;;;;;;5095095;28;20262;-69
2020/12/05 05:18:44;;;;;;;23.20;14.60;;;6.00;99.90;;;;;;5095213;28;20250;-69
2020/12/05 05:21:10;;;;;;;22.93;14.30;;;6.10;1.00;;;;;;5094850;28;20405;-69
2020/12/05 05:23:36;;;;;;;20.52;14.45;;;5.90;99.90;;;;;;5094876;28;20164;-69
2020/12/05 05:26:04;;;;;;;22.07;15.30;;;6.10;99.90;;;;;;5094694;28;20180;-69
2020/12/05 05:28:32;;;;;;;25.27;15.10;;;6.10;1.00;;;;;;5094940;28;20377;-69
2020/12/05 05:31:11;;;;;;;21.73;14.02;;;6.10;1.00;;;;;;5094755;28;20539;-69
2020/12/05 05:33:46;;;;;;;20.52;14.60;;;6.10;1.00;;;;;;5094837;28;20252;-69
2020/12/05 05:36:15;;;;;;;19.20;14.05;;;6.20;1.00;;;;;;5094790;28;20186;-69
2020/12/05 05:38:43;;;;;;;20.95;13.07;;;6.20;1.00;;;;;;5094531;28;20167;-69
2020/12/05 05:41:18;;;;;;;22.77;14.15;;;6.10;1.00;;;;;;5094499;28;20244;-69
2020/12/05 05:44:14;;;;;;;20.95;14.63;;;6.30;1.00;;;;;;5094421;28;20151;-69
2020/12/05 05:46:42;;;;;;;22.48;13.85;;;6.10;1.00;;;;;;5085695;28;20237;-69
2020/12/05 05:49:10;;;;;;;21.73;15.05;;;6.00;1.00;;;;;;5093516;28;20179;-69
2020/12/05 05:51:42;;;;;;;19.52;14.05;;;5.90;18.10;;;;;;5094495;28;20671;-69
2020/12/05 05:54:24;;;;;;;19.33;13.40;;;5.90;1.00;;;;;;5094132;28;20194;-69
2020/12/05 05:57:04;;;;;;;21.85;14.30;;;5.70;99.90;;;;;;5094194;28;20267;-69
2020/12/05 05:59:33;;;;;;;25.65;13.15;;;5.60;99.90;;;;;;5094358;28;20246;-69
2020/12/05 06:02:00;;;;;;;21.45;13.60;;;5.60;1.00;;;;;;5094048;28;20640;-69
2020/12/05 06:04:27;;;;;;;18.35;13.05;;;5.70;1.00;;;;;;5094249;28;20631;-69
2020/12/05 06:06:53;;;;;;;21.52;13.48;;;5.70;99.90;;;;;;5094171;28;20286;-69
2020/12/05 06:09:24;;;;;;;17.58;13.48;;;5.80;99.90;;;;;;5094438;28;20199;-69
2020/12/05 06:11:55;;;;;;;19.75;13.65;;;5.90;28.40;;;;;;5094150;28;20517;-69
2020/12/05 06:14:21;;;;;;;21.05;13.55;;;5.80;20.60;;;;;;5094406;28;20199;-69
2020/12/05 06:16:52;;;;;;;18.58;13.15;;;5.90;99.90;;;;;;5094179;28;20236;-69
2020/12/05 06:19:18;;;;;;;19.55;13.25;;;6.00;1.00;;;;;;5094288;28;20666;-69
2020/12/05 06:22:07;;;;;;;18.65;13.63;;;6.00;1.00;;;;;;5094179;28;20528;-69
2020/12/05 06:24:33;;;;;;;17.73;12.48;;;5.90;1.00;;;;;;5094342;28;20179;-69
2020/12/05 06:27:01;;;;;;;18.50;13.00;;;5.90;1.00;;;;;;5093688;28;20195;-69
2020/12/05 06:29:29;;;;;;;17.85;12.60;;;6.00;1.00;;;;;;5093909;28;20170;-69
2020/12/05 06:31:54;;;;;;;17.15;12.15;;;5.90;1.00;;;;;;5093670;28;20167;-69
2020/12/05 06:34:43;;;;;;;17.93;12.63;;;5.90;1.00;;;;;;5094120;28;20205;-69
2020/12/05 06:37:34;;;;;;;20.63;14.50;;;6.20;1.00;;;;;;5093761;28;20556;-69
2020/12/05 06:40:05;;;;;;;17.02;12.30;;;6.00;99.90;;;;;;5093773;28;20205;-70
2020/12/05 06:42:44;;;;;;;18.58;12.73;;;6.00;99.90;;;;;;5093639;28;20176;-69
2020/12/05 06:45:31;;;;;;;18.52;13.40;;;6.00;1.00;;;;;;5094307;28;20161;-69
2020/12/05 06:48:16;;;;;;;19.35;12.70;;;5.90;99.90;;;;;;5093848;28;20171;-69
2020/12/05 06:50:44;;;;;;;18.45;12.48;;;5.90;1.00;;;;;;5086197;28;20551;-69
2020/12/05 06:53:21;;;;;;;18.30;13.30;;;6.00;1.00;;;;;;5094096;28;20174;-69
2020/12/05 06:55:49;;;;;;;20.50;13.25;;;6.00;99.90;;;;;;5093334;28;20195;-69
2020/12/05 06:58:27;;;;;;;21.65;13.15;;;5.90;1.00;;;;;;5093604;28;20167;-69
2020/12/05 07:00:52;;;;;;;17.60;12.75;;;5.80;1.00;;;;;;5093073;28;20681;-69
2020/12/05 07:03:26;;;;;;;22.40;15.17;;;5.90;1.00;;;;;;5093365;28;20278;-68
2020/12/05 07:05:52;;;;;;;20.92;13.65;;;5.80;1.00;;;;;;5093467;28;20219;-69
2020/12/05 07:08:28;;;;;;;20.10;13.00;;;5.90;1.00;;;;;;5093330;28;20539;-69
2020/12/05 07:11:00;;;;;;;17.63;13.00;;;5.90;1.00;;;;;;5093582;28;20369;-68
2020/12/05 07:13:38;;;;;;;20.05;13.60;;;5.80;1.00;;;;;;5093105;28;20205;-69
2020/12/05 07:16:27;;;;;;;22.13;14.60;;;5.80;1.00;;;;;;5092953;28;20183;-69
2020/12/05 07:18:57;;;;;;;18.23;12.98;;;5.90;1.00;;;;;;5093459;28;20532;-69
2020/12/05 07:21:25;;;;;;;19.58;12.98;;;6.00;1.00;;;;;;5093483;28;20159;-68
2020/12/05 07:23:51;;;;;;;18.95;13.05;;;6.00;1.00;;;;;;5093144;28;20178;-69
2020/12/05 07:26:18;;;;;;;20.00;13.95;;;5.90;1.00;;;;;;5108666;28;20191;-68
2020/12/05 07:28:48;;;;;;;21.92;14.20;;;5.90;1.00;;;;;;5093104;28;20199;-68
2020/12/05 07:31:15;;;;;;;17.98;12.07;;;6.00;1.00;;;;;;5093376;28;20568;-69
2020/12/05 07:33:42;;;;;;;19.83;14.43;;;5.90;1.00;;;;;;5093107;28;20195;-69
2020/12/05 07:36:09;;;;;;;20.85;13.65;;;6.00;1.00;;;;;;5093022;28;20219;-70
2020/12/05 07:38:37;;;;;;;21.50;14.27;;;5.90;1.00;;;;;;5093265;28;20570;-68
2020/12/05 07:41:08;;;;;;;20.10;14.60;;;6.00;1.00;;;;;;5093226;28;20171;-68
2020/12/05 07:43:34;;;;;;;23.65;13.15;;;6.00;1.00;;;;;;5093248;28;20218;-68
2020/12/05 07:46:03;;;;;;;24.57;14.37;;;5.80;1.00;;;;;;5092853;28;20223;-68
2020/12/05 07:48:29;;;;;;;19.08;14.15;;;6.00;1.00;;;;;;5093132;28;20176;-69
2020/12/05 07:50:55;;;;;;;18.37;12.90;;;5.90;1.00;;;;;;5092870;28;20243;-68
2020/12/05 07:53:28;;;;;;;19.30;12.80;;;6.00;1.00;;;;;;5093391;28;20393;-69
2020/12/05 07:55:55;;;;;;;19.10;13.85;;;6.00;99.90;;;;;;5092877;28;20328;-68
2020/12/05 07:58:20;;;;;;;18.00;10.82;;;6.00;99.90;;;;;;5092743;28;20657;-69
2020/12/05 08:00:46;;;;;;;20.07;13.20;;;6.10;99.90;;;;;;5092490;28;20175;-69
2020/12/05 08:03:41;;;;;;;20.07;12.93;;;6.10;99.90;;;;;;5092640;28;20823;-68
2020/12/05 08:07:03;;;;;;;20.73;13.07;;;6.20;99.90;;;;;;5092782;28;20435;-69
2020/12/05 08:09:38;;;;;;;14.73;10.27;;;6.00;99.90;;;;;;5050055;28;20188;-68
2020/12/05 08:12:10;;;;;;;17.20;10.98;;;6.10;99.90;;;;;;5094317;28;20224;-69
2020/12/05 08:14:38;;;;;;;15.45;10.60;;;6.10;99.90;;;;;;5095852;28;20191;-69
2020/12/05 08:17:04;;;;;;;13.13;10.57;;;6.10;99.90;;;;;;5096688;28;20183;-68
2020/12/05 08:19:31;;;;;;;15.30;10.68;;;6.10;99.90;;;;;;5096216;28;20175;-68
2020/12/05 08:22:00;;;;;;;12.85;9.05;;;6.20;99.90;;;;;;5097946;28;20635;-69
2020/12/05 08:24:26;;;;;;;12.63;8.43;;;6.30;99.90;;;;;;5096177;28;20269;-68
2020/12/05 08:26:52;;;;;;;14.03;9.00;;;6.40;99.90;;;;;;5098927;28;20680;-70
2020/12/05 08:29:19;;;;;;;14.47;10.13;;;6.40;99.90;;;;;;5095959;28;20167;-69
2020/12/05 08:31:46;;;;;;;14.45;8.95;;;6.60;99.90;;;;;;5095961;28;20509;-68
2020/12/05 08:34:11;;;;;;;10.38;8.88;;;6.50;99.90;;;;;;5095726;28;20187;-69
2020/12/05 08:36:43;;;;;;;15.50;9.90;;;6.60;99.90;;;;;;5094480;28;20192;-69
2020/12/05 08:39:11;;;;;;;12.10;8.02;;;6.60;99.90;;;;;;5094330;28;20160;-69
2020/12/05 08:41:52;;;;;;;10.75;8.60;;;6.50;99.90;;;;;;5095634;28;20191;-69
2020/12/05 08:44:20;;;;;;;11.68;8.30;;;6.60;99.90;;;;;;5095834;28;20246;-69
2020/12/05 08:46:46;;;;;;;11.57;7.25;;;6.70;99.90;;;;;;5095491;28;20188;-69
2020/12/05 08:49:19;;;;;;;11.82;8.10;;;6.80;99.90;;;;;;5095625;28;20248;-69
2020/12/05 08:51:51;;;;;;;12.98;7.47;;;6.90;99.90;;;;;;5095568;28;20158;-68
2020/12/05 08:54:16;;;;;;;10.40;7.15;;;7.00;98.30;;;;;;5095674;28;20187;-69
2020/12/05 08:56:42;;;;;;;11.40;8.30;;;6.80;90.40;;;;;;5095302;28;20249;-68
2020/12/05 08:59:09;;;;;;;10.70;7.93;;;6.90;92.30;;;;;;5095061;28;20250;-69
2020/12/05 09:01:44;;;;;;;10.30;6.80;;;7.00;49.00;;;;;;5095768;28;20827;-69
2020/12/05 09:04:29;;;;;;;9.05;6.22;;;7.00;42.20;;;;;;5095140;28;20170;-69
2020/12/05 09:07:06;;;;;;;9.60;6.60;;;7.20;17.90;;;;;;5095823;28;20203;-69
2020/12/05 09:09:32;;;;;;;9.35;6.88;;;7.30;4.90;;;;;;5097115;28;20174;-69
2020/12/05 09:12:06;;;;;;;12.97;8.00;;;7.40;1.00;;;;;;5095305;28;20632;-69
2020/12/05 09:14:32;;;;;;;5.75;5.25;;;7.60;1.00;;;;;;5094862;28;20663;-69
2020/12/05 09:16:58;;;;;;;6.53;4.80;;;7.80;1.00;;;;;;5095174;28;20278;-69
2020/12/05 09:19:25;;;;;;;6.50;4.77;;;7.80;1.00;;;;;;5095440;28;20172;-68
2020/12/05 09:21:51;;;;;;;6.40;4.63;;;8.10;1.00;;;;;;5095123;28;20179;-69
2020/12/05 09:24:16;;;;;;;6.47;4.17;;;8.00;1.00;;;;;;5093562;28;20251;-69
2020/12/05 09:26:57;;;;;;;5.97;4.40;;;8.10;1.00;;;;;;5094900;28;20186;-68
2020/12/05 09:29:23;;;;;;;4.65;3.50;;;8.10;1.00;;;;;;5094718;28;20171;-69
2020/12/05 09:31:55;;;;;;;5.87;3.63;;;8.20;1.00;;;;;;5094748;28;20176;-69
2020/12/05 09:34:35;;;;;;;6.20;3.38;;;8.20;1.00;;;;;;5094635;28;20187;-69
2020/12/05 09:37:12;;;;;;;8.50;3.20;;;8.00;1.00;;;;;;5094745;28;20608;-69
2020/12/05 09:39:38;;;;;;;4.95;3.67;;;8.30;1.00;;;;;;5093916;28;20169;-69
2020/12/05 09:42:04;;;;;;;3.17;2.75;;;8.30;1.00;;;;;;5094288;28;20223;-67
2020/12/05 09:44:29;;;;;;;5.20;3.33;;;8.40;1.00;;;;;;5094499;28;20259;-69
2020/12/05 09:46:55;;;;;;;4.20;3.07;;;8.90;1.00;;;;;;5092755;28;20199;-69
2020/12/05 09:49:20;;;;;;;4.57;2.63;;;9.00;1.00;;;;;;5093940;28;20237;-69
2020/12/05 09:51:46;;;;;;;2.57;2.17;;;9.10;1.00;;;;;;5093716;28;20171;-68
2020/12/05 09:54:12;;;;;;;2.17;1.80;;;9.10;1.00;;;;;;5094338;28;20255;-70
2020/12/05 09:56:37;;;;;;;2.37;1.70;;;8.90;1.00;;;;;;5094762;28;20188;-70
2020/12/05 09:59:03;;;;;;;3.17;1.90;;;8.80;1.00;;;;;;5094011;28;20695;-70
2020/12/05 10:01:29;;;;;;;2.83;1.83;;;9.00;1.00;;;;;;5093502;28;20163;-71
2020/12/05 10:03:55;;;;;;;3.97;2.65;;;9.10;1.00;;;;;;5092085;28;20176;-70
2020/12/05 10:06:22;;;;;;;2.90;2.28;;;9.00;1.00;;;;;;5093478;28;20199;-70
2020/12/05 10:08:47;;;;;;;4.50;1.48;;;9.20;1.00;;;;;;5093784;28;20172;-71
2020/12/05 10:11:13;;;;;;;2.20;1.40;;;9.40;1.00;;;;;;5093624;28;20313;-70
2020/12/05 10:13:38;;;;;;;1.77;1.30;;;9.60;1.00;;;;;;5093710;28;20171;-71
2020/12/05 10:16:04;;;;;;;1.77;1.53;;;9.50;1.00;;;;;;5093560;28;20187;-70
2020/12/05 10:18:29;;;;;;;1.70;1.33;;;9.70;1.00;;;;;;5093414;28;20172;-70
2020/12/05 10:20:55;;;;;;;3.90;1.30;;;9.70;1.00;;;;;;5093848;28;20229;-70
2020/12/05 10:23:21;;;;;;;3.10;1.00;;;9.70;1.00;;;;;;5095279;28;20612;-70
2020/12/05 10:25:46;;;;;;;1.07;0.93;;;9.50;1.00;;;;;;5095596;28;20206;-69
2020/12/05 10:28:12;;;;;;;1.43;0.67;;;9.00;1.00;;;;;;5094847;28;20437;-70
2020/12/05 10:30:37;;;;;;;1.77;0.90;;;9.20;1.00;;;;;;5093524;28;20172;-69
2020/12/05 10:33:03;;;;;;;0.80;0.50;;;8.90;1.00;;;;;;5093421;28;20198;-69
2020/12/05 10:35:28;;;;;;;0.90;0.50;;;9.10;1.00;;;;;;5092554;28;20207;-69
2020/12/05 10:37:54;;;;;;;0.90;0.60;;;9.20;1.00;;;;;;5093086;28;20632;-68
2020/12/05 10:40:20;;;;;;;1.43;0.70;;;9.40;1.00;;;;;;5093274;28;20643;-70
2020/12/05 10:42:45;;;;;;;4.70;0.80;;;9.50;1.00;;;;;;5092901;28;20163;-69
2020/12/05 10:45:11;;;;;;;1.20;0.70;;;9.50;1.00;;;;;;5092724;28;20175;-70
2020/12/05 10:47:36;;;;;;;2.63;0.87;;;9.40;1.00;;;;;;5093009;28;20179;-68
2020/12/05 10:50:02;;;;;;;1.53;0.80;;;9.50;1.00;;;;;;5093127;28;20198;-70
2020/12/05 10:52:28;;;;;;;1.27;0.83;;;9.50;1.00;;;;;;5092797;28;20186;-69
2020/12/05 10:54:53;;;;;;;1.30;0.70;;;9.70;1.00;;;;;;5093005;28;20448;-69
2020/12/05 10:57:19;;;;;;;0.97;0.70;;;9.60;1.00;;;;;;5092733;28;20541;-69
2020/12/05 10:59:44;;;;;;;1.30;0.80;;;9.20;1.00;;;;;;5092820;28;20229;-70
2020/12/05 11:02:10;;;;;;;1.20;0.67;;;9.50;1.00;;;;;;5093271;28;20246;-69
2020/12/05 11:04:35;;;;;;;4.20;0.90;;;9.80;1.00;;;;;;5092992;28;20184;-69
2020/12/05 11:07:01;;;;;;;1.40;1.00;;;9.60;1.00;;;;;;5115690;22;20235;-68
2020/12/05 11:09:26;;;;;;;1.00;0.60;;;9.70;1.00;;;;;;5091627;28;20181;-68
2020/12/05 11:11:52;;;;;;;1.30;0.80;;;9.70;1.00;;;;;;5092921;28;20168;-68
2020/12/05 11:14:18;;;;;;;1.90;0.90;;;10.20;1.00;;;;;;5092758;28;20202;-68
2020/12/05 11:16:43;;;;;;;1.60;0.73;;;10.30;1.00;;;;;;5092982;28;20548;-68
2020/12/05 11:19:09;;;;;;;1.10;0.80;;;10.10;1.00;;;;;;5093106;28;20167;-68
2020/12/05 11:21:34;;;;;;;1.07;0.60;;;9.90;1.00;;;;;;5092720;28;20175;-68
2020/12/05 11:24:00;;;;;;;1.73;1.00;;;10.00;1.00;;;;;;5092954;28;20163;-68
2020/12/05 11:26:26;;;;;;;1.30;0.90;;;10.00;1.00;;;;;;5093161;28;20219;-68
2020/12/05 11:28:51;;;;;;;1.70;1.17;;;10.40;1.00;;;;;;5092567;28;20175;-68
2020/12/05 11:31:17;;;;;;;1.30;1.10;;;10.50;1.00;;;;;;5092788;28;20274;-68
2020/12/05 11:33:43;;;;;;;1.50;0.87;;;11.10;1.00;;;;;;5092734;28;20173;-67
2020/12/05 11:36:09;;;;;;;1.20;0.80;;;10.70;1.00;;;;;;5092399;28;20188;-68
2020/12/05 11:38:34;;;;;;;2.83;0.70;;;10.80;1.00;;;;;;5092486;28;20160;-68
2020/12/05 11:41:00;;;;;;;1.60;0.70;;;10.70;1.00;;;;;;5092462;28;20881;-68
2020/12/05 11:43:26;;;;;;;1.53;0.90;;;10.00;1.00;;;;;;5092612;28;20163;-68
2020/12/05 11:45:51;;;;;;;2.33;0.93;;;10.20;1.00;;;;;;5092784;28;20223;-68
2020/12/05 11:48:17;;;;;;;6.97;4.13;;;10.20;1.00;;;;;;5096093;28;20405;-68
2020/12/05 11:50:42;;;;;;;2.97;1.50;;;10.90;1.00;;;;;;5096756;28;20254;-68
2020/12/05 11:53:08;;;;;;;1.20;0.87;;;11.00;1.00;;;;;;5097073;28;20242;-68
2020/12/05 11:55:34;;;;;;;1.10;0.90;;;10.90;1.00;;;;;;5097215;28;20199;-68
2020/12/05 11:58:00;;;;;;;8.50;1.10;;;10.90;1.00;;;;;;5096191;28;20195;-68
2020/12/05 12:00:26;;;;;;;1.80;0.90;;;10.50;1.00;;;;;;5097191;28;20176;-68
2020/12/05 12:02:53;;;;;;;2.53;1.73;;;10.70;1.00;;;;;;5096320;28;20233;-68
2020/12/05 12:05:18;;;;;;;2.07;1.20;;;10.70;1.00;;;;;;5096159;28;20917;-68
2020/12/05 12:07:44;;;;;;;2.37;1.10;;;11.10;1.00;;;;;;5095955;28;20408;-69
2020/12/05 12:10:10;;;;;;;1.40;0.80;;;10.90;1.00;;;;;;5096417;28;20167;-69
2020/12/05 12:12:36;;;;;;;1.33;0.80;;;11.40;1.00;;;;;;5096616;28;20172;-68
2020/12/05 12:15:02;;;;;;;2.17;0.63;;;11.40;1.00;;;;;;5096002;28;20195;-69
2020/12/05 12:17:27;;;;;;;2.40;0.87;;;10.70;1.00;;;;;;5096553;28;20934;-69
2020/12/05 12:19:53;;;;;;;1.80;1.00;;;11.10;1.00;;;;;;5095672;28;20446;-69
2020/12/05 12:22:18;;;;;;;1.93;1.00;;;11.70;1.00;;;;;;5096009;28;20166;-68
2020/12/05 12:24:44;;;;;;;3.40;1.50;;;11.50;1.00;;;;;;5095932;28;20173;-69
2020/12/05 12:27:10;;;;;;;5.33;2.60;;;11.50;1.00;;;;;;5095767;28;20752;-68
2020/12/05 12:29:35;;;;;;;9.70;3.80;;;11.80;1.00;;;;;;5096106;28;20536;-68
2020/12/05 12:32:01;;;;;;;2.60;2.23;;;12.00;1.00;;;;;;5095803;28;20228;-68
2020/12/05 12:34:26;;;;;;;1.20;0.80;;;12.70;1.00;;;;;;5095065;28;20191;-68
2020/12/05 12:36:52;;;;;;;2.80;1.53;;;12.10;1.00;;;;;;5095294;28;20198;-68
2020/12/05 12:39:18;;;;;;;1.70;0.80;;;12.30;1.00;;;;;;5095810;28;20509;-68
2020/12/05 12:41:44;;;;;;;3.03;2.10;;;12.80;1.00;;;;;;5095564;28;20171;-68
2020/12/05 12:44:09;;;;;;;3.60;0.90;;;13.10;1.00;;;;;;5095529;28;20406;-68
2020/12/05 12:46:43;;;;;;;2.43;0.90;;;13.40;1.00;;;;;;5095151;28;20338;-68
2020/12/05 12:49:09;;;;;;;1.77;0.87;;;13.10;1.00;;;;;;5095663;28;20159;-68
2020/12/05 12:51:34;;;;;;;1.93;0.70;;;12.90;1.00;;;;;;5095790;28;20462;-68
2020/12/05 12:54:00;;;;;;;1.53;0.90;;;13.00;1.00;;;;;;5095706;28;20195;-68
2020/12/05 12:56:26;;;;;;;1.83;0.80;;;12.60;1.00;;;;;;5095397;28;20260;-68